sensor_id;sensor_type;location;lat;lon;timestamp;pressure;altitude;pressure_sealevel;temperature;humidity
31082;BME280;17737;52.586;13.284;2023-05-19T00:00:21;102277.56;;;9.42;61.72
31082;BME280;17737;52.586;13.284;2023-05-19T00:02:50;102268.63;;;9.42;61.74
31082;BME280;17737;52.586;13.284;2023-05-19T00:05:19;102277.69;;;9.41;61.15
31082;BME280;17737;52.586;13.284;2023-05-19T00:07:49;102270.09;;;9.35;61.29
31082;BME280;17737;52.586;13.284;2023-05-19T00:10:19;102268.38;;;9.34;61.00
31082;BME280;17737;52.586;13.284;2023-05-19T00:12:48;102265.94;;;9.31;61.27
31082;BME280;17737;52.586;13.284;2023-05-19T00:15:21;102263.50;;;9.28;60.96
31082;BME280;17737;52.586;13.284;2023-05-19T00:17:49;102259.59;;;9.32;60.45
31082;BME280;17737;52.586;13.284;2023-05-19T00:20:17;102258.34;;;9.25;60.97
31082;BME280;17737;52.586;13.284;2023-05-19T00:22:45;102263.75;;;9.25;60.42
31082;BME280;17737;52.586;13.284;2023-05-19T00:25:13;102264.25;;;9.19;60.62
31082;BME280;17737;52.586;13.284;2023-05-19T00:27:41;102264.00;;;9.22;60.59
31082;BME280;17737;52.586;13.284;2023-05-19T00:30:10;102267.06;;;9.17;60.81
31082;BME280;17737;52.586;13.284;2023-05-19T00:32:40;102274.25;;;9.17;60.55
31082;BME280;17737;52.586;13.284;2023-05-19T00:35:08;102273.03;;;9.10;60.60
31082;BME280;17737;52.586;13.284;2023-05-19T00:37:36;102266.91;;;9.08;60.73
31082;BME280;17737;52.586;13.284;2023-05-19T00:40:06;102272.28;;;9.08;60.61
31082;BME280;17737;52.586;13.284;2023-05-19T00:42:35;102266.91;;;9.08;61.17
31082;BME280;17737;52.586;13.284;2023-05-19T00:45:04;102270.97;;;9.13;60.85
31082;BME280;17737;52.586;13.284;2023-05-19T00:47:33;102265.47;;;9.04;60.60
31082;BME280;17737;52.586;13.284;2023-05-19T00:50:03;102266.19;;;9.06;60.39
31082;BME280;17737;52.586;13.284;2023-05-19T00:52:31;102268.38;;;9.01;60.95
31082;BME280;17737;52.586;13.284;2023-05-19T00:54:59;102265.19;;;8.96;61.22
31082;BME280;17737;52.586;13.284;2023-05-19T00:57:27;102266.66;;;8.89;61.17
31082;BME280;17737;52.586;13.284;2023-05-19T00:59:55;102268.75;;;8.85;61.64
31082;BME280;17737;52.586;13.284;2023-05-19T01:02:24;102264.59;;;8.81;61.95
31082;BME280;17737;52.586;13.284;2023-05-19T01:04:52;102268.59;;;8.76;61.95
31082;BME280;17737;52.586;13.284;2023-05-19T01:07:22;102259.31;;;8.69;62.29
31082;BME280;17737;52.586;13.284;2023-05-19T01:09:50;102260.03;;;8.71;62.60
31082;BME280;17737;52.586;13.284;2023-05-19T01:12:18;102262.59;;;8.72;62.35
31082;BME280;17737;52.586;13.284;2023-05-19T01:14:47;102253.81;;;8.70;62.29
31082;BME280;17737;52.586;13.284;2023-05-19T01:17:20;102261.25;;;8.67;62.60
31082;BME280;17737;52.586;13.284;2023-05-19T01:19:58;102255.03;;;8.66;62.44
31082;BME280;17737;52.586;13.284;2023-05-19T01:23:10;102253.69;;;8.61;62.81
31082;BME280;17737;52.586;13.284;2023-05-19T01:32:05;102260.50;;;8.54;62.98
31082;BME280;17737;52.586;13.284;2023-05-19T01:34:40;102260.00;;;8.48;63.13
31082;BME280;17737;52.586;13.284;2023-05-19T01:37:12;102270.88;;;8.47;63.48
31082;BME280;17737;52.586;13.284;2023-05-19T01:39:43;102268.31;;;8.45;63.34
31082;BME280;17737;52.586;13.284;2023-05-19T01:42:13;102268.88;;;8.38;63.79
31082;BME280;17737;52.586;13.284;2023-05-19T01:44:42;102265.69;;;8.33;64.15
31082;BME280;17737;52.586;13.284;2023-05-19T01:47:13;102257.75;;;8.31;64.10
31082;BME280;17737;52.586;13.284;2023-05-19T01:49:41;102264.94;;;8.31;64.28
31082;BME280;17737;52.586;13.284;2023-05-19T01:52:09;102262.50;;;8.28;64.30
31082;BME280;17737;52.586;13.284;2023-05-19T01:54:37;102268.00;;;8.26;64.79
31082;BME280;17737;52.586;13.284;2023-05-19T01:57:14;102268.22;;;8.23;64.62
31082;BME280;17737;52.586;13.284;2023-05-19T01:59:57;102272.19;;;8.18;64.95
31082;BME280;17737;52.586;13.284;2023-05-19T02:02:50;102262.44;;;8.17;65.11
31082;BME280;17737;52.586;13.284;2023-05-19T02:05:29;102267.38;;;8.10;65.41
31082;BME280;17737;52.586;13.284;2023-05-19T02:08:10;102268.50;;;8.08;65.52
31082;BME280;17737;52.586;13.284;2023-05-19T02:10:44;102278.38;;;8.07;66.26
31082;BME280;17737;52.586;13.284;2023-05-19T02:13:22;102277.63;;;8.05;65.91
31082;BME280;17737;52.586;13.284;2023-05-19T02:15:59;102279.72;;;8.02;66.02
31082;BME280;17737;52.586;13.284;2023-05-19T02:18:33;102276.03;;;8.03;66.16
31082;BME280;17737;52.586;13.284;2023-05-19T02:21:01;102270.84;;;7.89;66.47
31082;BME280;17737;52.586;13.284;2023-05-19T02:23:30;102265.84;;;7.95;66.55
31082;BME280;17737;52.586;13.284;2023-05-19T02:25:58;102265.34;;;7.90;66.52
31082;BME280;17737;52.586;13.284;2023-05-19T02:28:26;102261.09;;;7.88;66.66
31082;BME280;17737;52.586;13.284;2023-05-19T02:30:54;102260.22;;;7.87;66.83
31082;BME280;17737;52.586;13.284;2023-05-19T02:33:22;102260.84;;;7.91;66.86
31082;BME280;17737;52.586;13.284;2023-05-19T02:35:54;102264.66;;;7.99;66.65
31082;BME280;17737;52.586;13.284;2023-05-19T02:38:22;102257.94;;;7.94;66.57
31082;BME280;17737;52.586;13.284;2023-05-19T02:40:50;102257.28;;;7.90;66.88
31082;BME280;17737;52.586;13.284;2023-05-19T02:43:18;102261.84;;;7.90;66.76
31082;BME280;17737;52.586;13.284;2023-05-19T02:45:47;102262.47;;;7.93;66.91
31082;BME280;17737;52.586;13.284;2023-05-19T02:48:15;102259.88;;;7.92;67.07
31082;BME280;17737;52.586;13.284;2023-05-19T02:50:43;102261.47;;;7.94;67.11
31082;BME280;17737;52.586;13.284;2023-05-19T02:53:12;102258.31;;;8.00;66.92
31082;BME280;17737;52.586;13.284;2023-05-19T02:55:41;102253.56;;;8.04;66.39
31082;BME280;17737;52.586;13.284;2023-05-19T02:58:09;102254.44;;;8.04;66.82
31082;BME280;17737;52.586;13.284;2023-05-19T03:00:37;102248.84;;;8.07;66.74
31082;BME280;17737;52.586;13.284;2023-05-19T03:03:05;102249.81;;;8.06;66.83
31082;BME280;17737;52.586;13.284;2023-05-19T03:05:35;102256.06;;;8.07;66.77
31082;BME280;17737;52.586;13.284;2023-05-19T03:08:03;102249.94;;;8.05;67.02
31082;BME280;17737;52.586;13.284;2023-05-19T03:10:33;102253.81;;;8.01;67.02
31082;BME280;17737;52.586;13.284;2023-05-19T03:13:01;102252.75;;;8.03;67.14
31082;BME280;17737;52.586;13.284;2023-05-19T03:15:29;102252.88;;;8.02;67.10
31082;BME280;17737;52.586;13.284;2023-05-19T03:17:57;102244.69;;;8.03;67.28
31082;BME280;17737;52.586;13.284;2023-05-19T03:20:26;102252.88;;;8.02;67.27
31082;BME280;17737;52.586;13.284;2023-05-19T03:22:56;102248.38;;;8.13;66.88
31082;BME280;17737;52.586;13.284;2023-05-19T03:25:24;102248.09;;;8.05;67.26
31082;BME280;17737;52.586;13.284;2023-05-19T03:27:54;102252.94;;;8.00;67.51
31082;BME280;17737;52.586;13.284;2023-05-19T03:30:22;102251.75;;;8.04;67.69
31082;BME280;17737;52.586;13.284;2023-05-19T03:32:50;102251.28;;;8.10;67.37
31082;BME280;17737;52.586;13.284;2023-05-19T03:35:18;102246.38;;;8.04;67.61
31082;BME280;17737;52.586;13.284;2023-05-19T03:37:46;102253.63;;;8.15;67.45
31082;BME280;17737;52.586;13.284;2023-05-19T03:40:14;102250.09;;;8.14;67.64
31082;BME280;17737;52.586;13.284;2023-05-19T03:42:44;102251.91;;;8.14;68.00
31082;BME280;17737;52.586;13.284;2023-05-19T03:45:13;102247.66;;;8.11;67.77
31082;BME280;17737;52.586;13.284;2023-05-19T03:47:41;102248.84;;;8.07;67.87
31082;BME280;17737;52.586;13.284;2023-05-19T03:50:09;102244.47;;;8.17;67.67
31082;BME280;17737;52.586;13.284;2023-05-19T03:52:38;102244.69;;;8.27;67.48
31082;BME280;17737;52.586;13.284;2023-05-19T03:55:12;102247.63;;;8.24;67.44
31082;BME280;17737;52.586;13.284;2023-05-19T03:57:40;102246.81;;;8.45;66.89
31082;BME280;17737;52.586;13.284;2023-05-19T04:00:10;102245.56;;;8.49;66.60
31082;BME280;17737;52.586;13.284;2023-05-19T04:02:41;102243.19;;;8.58;66.47
31082;BME280;17737;52.586;13.284;2023-05-19T04:05:09;102250.63;;;8.65;66.72
31082;BME280;17737;52.586;13.284;2023-05-19T04:07:37;102248.25;;;8.95;65.58
31082;BME280;17737;52.586;13.284;2023-05-19T04:10:06;102248.09;;;9.30;64.53
31082;BME280;17737;52.586;13.284;2023-05-19T04:12:34;102251.47;;;9.65;62.75
31082;BME280;17737;52.586;13.284;2023-05-19T04:15:03;102250.28;;;9.90;62.08
31082;BME280;17737;52.586;13.284;2023-05-19T04:17:33;102250.59;;;10.07;62.01
31082;BME280;17737;52.586;13.284;2023-05-19T04:20:01;102249.78;;;10.27;61.18
31082;BME280;17737;52.586;13.284;2023-05-19T04:22:31;102253.16;;;10.40;60.43
31082;BME280;17737;52.586;13.284;2023-05-19T04:24:59;102254.00;;;10.20;60.87
31082;BME280;17737;52.586;13.284;2023-05-19T04:27:27;102258.91;;;10.15;61.60
31082;BME280;17737;52.586;13.284;2023-05-19T04:29:57;102267.38;;;10.00;61.37
31082;BME280;17737;52.586;13.284;2023-05-19T04:32:25;102265.03;;;10.17;61.16
31082;BME280;17737;52.586;13.284;2023-05-19T04:34:56;102259.25;;;10.22;61.01
31082;BME280;17737;52.586;13.284;2023-05-19T04:37:24;102258.66;;;10.18;61.53
31082;BME280;17737;52.586;13.284;2023-05-19T04:39:52;102260.41;;;10.08;61.79
31082;BME280;17737;52.586;13.284;2023-05-19T04:42:20;102261.34;;;10.18;61.99
31082;BME280;17737;52.586;13.284;2023-05-19T04:44:51;102258.19;;;10.13;61.98
31082;BME280;17737;52.586;13.284;2023-05-19T04:47:19;102261.97;;;10.42;61.36
31082;BME280;17737;52.586;13.284;2023-05-19T04:49:47;102270.19;;;10.61;60.80
31082;BME280;17737;52.586;13.284;2023-05-19T04:52:22;102267.66;;;10.90;60.01
31082;BME280;17737;52.586;13.284;2023-05-19T04:54:50;102272.16;;;11.10;58.93
31082;BME280;17737;52.586;13.284;2023-05-19T04:57:18;102271.56;;;11.07;59.18
31082;BME280;17737;52.586;13.284;2023-05-19T04:59:46;102268.53;;;11.21;58.57
31082;BME280;17737;52.586;13.284;2023-05-19T05:02:14;102271.88;;;11.83;57.01
31082;BME280;17737;52.586;13.284;2023-05-19T05:04:42;102270.59;;;11.68;57.36
31082;BME280;17737;52.586;13.284;2023-05-19T05:07:12;102262.25;;;12.28;55.81
31082;BME280;17737;52.586;13.284;2023-05-19T05:09:41;102263.94;;;12.20;55.61
31082;BME280;17737;52.586;13.284;2023-05-19T05:12:10;102268.19;;;12.60;54.84
31082;BME280;17737;52.586;13.284;2023-05-19T05:14:39;102260.13;;;13.06;53.62
31082;BME280;17737;52.586;13.284;2023-05-19T05:17:10;102265.84;;;12.94;53.76
31082;BME280;17737;52.586;13.284;2023-05-19T05:19:39;102268.59;;;12.75;54.67
31082;BME280;17737;52.586;13.284;2023-05-19T05:22:08;102268.41;;;12.95;54.36
31082;BME280;17737;52.586;13.284;2023-05-19T05:24:37;102269.97;;;13.07;53.63
31082;BME280;17737;52.586;13.284;2023-05-19T05:27:07;102268.94;;;13.45;53.08
31082;BME280;17737;52.586;13.284;2023-05-19T05:29:35;102268.03;;;13.27;52.47
31082;BME280;17737;52.586;13.284;2023-05-19T05:32:04;102265.84;;;12.94;53.62
31082;BME280;17737;52.586;13.284;2023-05-19T05:34:33;102264.19;;;12.55;55.02
31082;BME280;17737;52.586;13.284;2023-05-19T05:37:03;102265.06;;;12.36;55.79
31082;BME280;17737;52.586;13.284;2023-05-19T05:39:32;102264.22;;;12.45;55.95
31082;BME280;17737;52.586;13.284;2023-05-19T05:42:00;102276.50;;;12.21;56.44
31082;BME280;17737;52.586;13.284;2023-05-19T05:44:29;102264.25;;;12.17;56.93
31082;BME280;17737;52.586;13.284;2023-05-19T05:47:01;102265.25;;;12.25;56.27
31082;BME280;17737;52.586;13.284;2023-05-19T05:49:30;102272.34;;;12.07;57.07
31082;BME280;17737;52.586;13.284;2023-05-19T05:52:01;102270.09;;;12.12;57.56
31082;BME280;17737;52.586;13.284;2023-05-19T05:54:33;102268.66;;;12.08;57.64
31082;BME280;17737;52.586;13.284;2023-05-19T05:57:01;102266.22;;;12.15;57.87
31082;BME280;17737;52.586;13.284;2023-05-19T05:59:33;102267.22;;;12.23;57.42
31082;BME280;17737;52.586;13.284;2023-05-19T06:02:02;102260.84;;;12.05;57.84
31082;BME280;17737;52.586;13.284;2023-05-19T06:04:31;102257.53;;;12.11;57.42
31082;BME280;17737;52.586;13.284;2023-05-19T06:06:59;102264.09;;;12.37;57.18
31082;BME280;17737;52.586;13.284;2023-05-19T06:09:27;102268.09;;;12.43;57.34
31082;BME280;17737;52.586;13.284;2023-05-19T06:11:57;102263.38;;;12.54;56.65
31082;BME280;17737;52.586;13.284;2023-05-19T06:14:25;102270.59;;;12.63;56.66
31082;BME280;17737;52.586;13.284;2023-05-19T06:16:55;102263.63;;;12.80;55.87
31082;BME280;17737;52.586;13.284;2023-05-19T06:19:23;102269.91;;;12.61;56.67
31082;BME280;17737;52.586;13.284;2023-05-19T06:21:51;102264.31;;;12.72;56.76
31082;BME280;17737;52.586;13.284;2023-05-19T06:24:19;102265.72;;;12.95;56.01
31082;BME280;17737;52.586;13.284;2023-05-19T06:26:47;102272.34;;;13.20;55.21
31082;BME280;17737;52.586;13.284;2023-05-19T06:29:15;102273.53;;;12.98;56.21
31082;BME280;17737;52.586;13.284;2023-05-19T06:31:43;102273.66;;;13.06;55.75
31082;BME280;17737;52.586;13.284;2023-05-19T06:34:13;102274.81;;;13.41;55.09
31082;BME280;17737;52.586;13.284;2023-05-19T06:36:43;102278.16;;;13.62;54.29
31082;BME280;17737;52.586;13.284;2023-05-19T06:39:11;102268.91;;;13.82;53.83
31082;BME280;17737;52.586;13.284;2023-05-19T06:41:39;102267.16;;;13.81;53.83
31082;BME280;17737;52.586;13.284;2023-05-19T06:44:07;102273.63;;;13.97;53.74
31082;BME280;17737;52.586;13.284;2023-05-19T06:46:35;102270.59;;;13.83;54.02
31082;BME280;17737;52.586;13.284;2023-05-19T06:49:03;102273.94;;;14.12;53.48
31082;BME280;17737;52.586;13.284;2023-05-19T06:51:33;102275.78;;;14.38;52.57
31082;BME280;17737;52.586;13.284;2023-05-19T06:54:01;102269.66;;;14.36;52.92
31082;BME280;17737;52.586;13.284;2023-05-19T06:56:29;102272.41;;;14.62;52.02
31082;BME280;17737;52.586;13.284;2023-05-19T06:58:57;102268.69;;;14.46;52.11
31082;BME280;17737;52.586;13.284;2023-05-19T07:01:25;102275.88;;;14.02;53.67
31082;BME280;17737;52.586;13.284;2023-05-19T07:03:54;102272.03;;;14.04;53.47
31082;BME280;17737;52.586;13.284;2023-05-19T07:06:22;102271.69;;;13.90;54.18
31082;BME280;17737;52.586;13.284;2023-05-19T07:08:51;102273.78;;;13.96;54.34
31082;BME280;17737;52.586;13.284;2023-05-19T07:11:20;102271.88;;;14.06;54.02
31082;BME280;17737;52.586;13.284;2023-05-19T07:13:48;102271.56;;;14.09;53.88
31082;BME280;17737;52.586;13.284;2023-05-19T07:16:16;102271.50;;;14.36;53.54
31082;BME280;17737;52.586;13.284;2023-05-19T07:18:44;102273.56;;;14.42;53.38
31082;BME280;17737;52.586;13.284;2023-05-19T07:21:12;102270.19;;;14.40;53.44
31082;BME280;17737;52.586;13.284;2023-05-19T07:23:40;102270.19;;;14.83;52.18
31082;BME280;17737;52.586;13.284;2023-05-19T07:26:09;102281.31;;;14.98;52.03
31082;BME280;17737;52.586;13.284;2023-05-19T07:28:37;102273.53;;;15.28;51.23
31082;BME280;17737;52.586;13.284;2023-05-19T07:31:07;102270.63;;;15.55;50.92
31082;BME280;17737;52.586;13.284;2023-05-19T07:33:35;102264.25;;;15.73;50.08
31082;BME280;17737;52.586;13.284;2023-05-19T07:36:04;102268.66;;;15.74;50.32
31082;BME280;17737;52.586;13.284;2023-05-19T07:38:32;102268.69;;;15.90;49.65
31082;BME280;17737;52.586;13.284;2023-05-19T07:41:01;102267.66;;;15.83;49.53
31082;BME280;17737;52.586;13.284;2023-05-19T07:43:31;102262.94;;;15.93;49.37
31082;BME280;17737;52.586;13.284;2023-05-19T07:45:59;102268.72;;;16.06;49.55
31082;BME280;17737;52.586;13.284;2023-05-19T07:48:27;102257.19;;;16.20;49.22
31082;BME280;17737;52.586;13.284;2023-05-19T07:50:55;102252.53;;;15.80;49.97
31082;BME280;17737;52.586;13.284;2023-05-19T07:53:24;102259.50;;;15.75;50.21
31082;BME280;17737;52.586;13.284;2023-05-19T07:55:53;102253.78;;;16.10;49.28
31082;BME280;17737;52.586;13.284;2023-05-19T07:58:25;102247.34;;;16.27;48.87
31082;BME280;17737;52.586;13.284;2023-05-19T08:00:57;102247.53;;;16.25;48.67
31082;BME280;17737;52.586;13.284;2023-05-19T08:03:25;102249.69;;;16.06;49.09
31082;BME280;17737;52.586;13.284;2023-05-19T08:05:54;102247.84;;;16.06;48.96
31082;BME280;17737;52.586;13.284;2023-05-19T08:08:22;102260.88;;;15.87;48.94
31082;BME280;17737;52.586;13.284;2023-05-19T08:10:50;102247.50;;;16.09;49.27
31082;BME280;17737;52.586;13.284;2023-05-19T08:13:18;102252.41;;;15.90;49.26
31082;BME280;17737;52.586;13.284;2023-05-19T08:15:46;102256.50;;;16.02;48.94
31082;BME280;17737;52.586;13.284;2023-05-19T08:18:15;102246.03;;;16.47;48.43
31082;BME280;17737;52.586;13.284;2023-05-19T08:20:43;102257.06;;;16.53;48.10
31082;BME280;17737;52.586;13.284;2023-05-19T08:23:12;102255.69;;;16.82;47.50
31082;BME280;17737;52.586;13.284;2023-05-19T08:25:40;102251.06;;;16.98;45.69
31082;BME280;17737;52.586;13.284;2023-05-19T08:28:08;102261.00;;;17.30;45.50
31082;BME280;17737;52.586;13.284;2023-05-19T08:30:36;102264.16;;;17.57;45.33
31082;BME280;17737;52.586;13.284;2023-05-19T08:33:04;102258.22;;;17.92;44.64
31082;BME280;17737;52.586;13.284;2023-05-19T08:35:34;102257.13;;;18.02;43.71
31082;BME280;17737;52.586;13.284;2023-05-19T08:38:02;102254.19;;;18.03;43.25
31082;BME280;17737;52.586;13.284;2023-05-19T08:40:30;102252.22;;;17.97;43.53
31082;BME280;17737;52.586;13.284;2023-05-19T08:43:01;102246.09;;;18.18;42.86
31082;BME280;17737;52.586;13.284;2023-05-19T08:45:29;102251.06;;;18.59;42.38
31082;BME280;17737;52.586;13.284;2023-05-19T08:48:00;102243.59;;;18.76;42.17
31082;BME280;17737;52.586;13.284;2023-05-19T08:50:30;102243.50;;;18.84;41.71
31082;BME280;17737;52.586;13.284;2023-05-19T08:53:10;102233.69;;;18.75;42.13
31082;BME280;17737;52.586;13.284;2023-05-19T08:56:01;102226.44;;;18.67;40.72
31082;BME280;17737;52.586;13.284;2023-05-19T08:58:37;102235.72;;;18.36;40.80
31082;BME280;17737;52.586;13.284;2023-05-19T09:01:06;102229.56;;;18.19;41.46
31082;BME280;17737;52.586;13.284;2023-05-19T09:03:35;102221.66;;;18.24;40.84
31082;BME280;17737;52.586;13.284;2023-05-19T09:06:07;102224.88;;;18.05;41.30
31082;BME280;17737;52.586;13.284;2023-05-19T09:08:35;102227.94;;;17.79;41.46
31082;BME280;17737;52.586;13.284;2023-05-19T09:11:03;102222.81;;;18.07;40.35
31082;BME280;17737;52.586;13.284;2023-05-19T09:13:31;102226.50;;;17.91;40.58
31082;BME280;17737;52.586;13.284;2023-05-19T09:16:00;102229.84;;;17.79;41.00
31082;BME280;17737;52.586;13.284;2023-05-19T09:18:30;102220.75;;;17.86;40.88
31082;BME280;17737;52.586;13.284;2023-05-19T09:20:59;102222.56;;;18.17;40.52
31082;BME280;17737;52.586;13.284;2023-05-19T09:23:31;102217.56;;;18.28;40.32
31082;BME280;17737;52.586;13.284;2023-05-19T09:26:02;102218.38;;;18.29;40.44
31082;BME280;17737;52.586;13.284;2023-05-19T09:28:34;102207.28;;;18.53;39.44
31082;BME280;17737;52.586;13.284;2023-05-19T09:31:04;102220.94;;;18.53;39.71
31082;BME280;17737;52.586;13.284;2023-05-19T09:33:34;102207.84;;;18.48;38.85
31082;BME280;17737;52.586;13.284;2023-05-19T09:36:03;102214.38;;;18.39;39.07
31082;BME280;17737;52.586;13.284;2023-05-19T09:38:36;102196.38;;;18.53;38.28
31082;BME280;17737;52.586;13.284;2023-05-19T09:41:05;102205.00;;;17.97;39.91
31082;BME280;17737;52.586;13.284;2023-05-19T09:43:34;102206.88;;;18.41;39.28
31082;BME280;17737;52.586;13.284;2023-05-19T09:46:03;102198.56;;;18.72;38.71
31082;BME280;17737;52.586;13.284;2023-05-19T09:48:32;102201.09;;;18.59;37.80
31082;BME280;17737;52.586;13.284;2023-05-19T09:51:01;102202.16;;;18.13;38.50
31082;BME280;17737;52.586;13.284;2023-05-19T09:53:30;102197.75;;;18.86;37.27
31082;BME280;17737;52.586;13.284;2023-05-19T09:56:01;102196.59;;;18.80;37.49
31082;BME280;17737;52.586;13.284;2023-05-19T09:58:30;102194.88;;;18.65;37.44
31082;BME280;17737;52.586;13.284;2023-05-19T10:01:01;102186.41;;;18.60;37.07
31082;BME280;17737;52.586;13.284;2023-05-19T10:03:32;102182.56;;;19.42;36.60
31082;BME280;17737;52.586;13.284;2023-05-19T10:06:02;102178.72;;;19.07;36.63
31082;BME280;17737;52.586;13.284;2023-05-19T10:08:33;102180.31;;;18.72;37.41
31082;BME280;17737;52.586;13.284;2023-05-19T10:11:03;102172.22;;;18.93;37.23
31082;BME280;17737;52.586;13.284;2023-05-19T10:13:33;102169.94;;;19.26;36.46
31082;BME280;17737;52.586;13.284;2023-05-19T10:16:04;102144.94;;;19.29;36.00
31082;BME280;17737;52.586;13.284;2023-05-19T10:18:36;102177.78;;;18.85;36.61
31082;BME280;17737;52.586;13.284;2023-05-19T10:21:06;102179.09;;;18.75;36.42
31082;BME280;17737;52.586;13.284;2023-05-19T10:23:35;102165.63;;;19.02;36.13
31082;BME280;17737;52.586;13.284;2023-05-19T10:26:05;102179.41;;;18.43;37.77
31082;BME280;17737;52.586;13.284;2023-05-19T10:28:37;102181.81;;;18.75;36.79
31082;BME280;17737;52.586;13.284;2023-05-19T10:31:10;102176.25;;;18.54;37.40
31082;BME280;17737;52.586;13.284;2023-05-19T10:33:59;102169.28;;;18.95;36.89
31082;BME280;17737;52.586;13.284;2023-05-19T10:36:49;102173.91;;;19.09;36.80
31082;BME280;17737;52.586;13.284;2023-05-19T10:39:28;102171.56;;;19.35;35.38
31082;BME280;17737;52.586;13.284;2023-05-19T10:42:10;102157.31;;;19.25;35.40
31082;BME280;17737;52.586;13.284;2023-05-19T10:44:52;102168.44;;;19.38;35.53
31082;BME280;17737;52.586;13.284;2023-05-19T10:47:28;102172.88;;;19.39;34.65
31082;BME280;17737;52.586;13.284;2023-05-19T10:49:59;102166.91;;;19.50;35.39
31082;BME280;17737;52.586;13.284;2023-05-19T10:52:29;102165.31;;;19.77;35.47
31082;BME280;17737;52.586;13.284;2023-05-19T10:54:59;102163.03;;;19.80;34.91
31082;BME280;17737;52.586;13.284;2023-05-19T10:57:29;102151.06;;;19.81;35.28
31082;BME280;17737;52.586;13.284;2023-05-19T11:00:01;102154.84;;;20.01;35.16
31082;BME280;17737;52.586;13.284;2023-05-19T11:02:39;102153.66;;;19.68;34.89
31082;BME280;17737;52.586;13.284;2023-05-19T11:05:09;102149.00;;;19.48;35.56
31082;BME280;17737;52.586;13.284;2023-05-19T11:07:40;102146.81;;;19.58;35.96
31082;BME280;17737;52.586;13.284;2023-05-19T11:10:10;102144.84;;;19.52;35.88
31082;BME280;17737;52.586;13.284;2023-05-19T11:12:41;102151.06;;;19.81;35.27
31082;BME280;17737;52.586;13.284;2023-05-19T11:15:12;102141.53;;;19.56;35.30
31082;BME280;17737;52.586;13.284;2023-05-19T11:17:45;102152.53;;;19.27;35.80
31082;BME280;17737;52.586;13.284;2023-05-19T11:20:22;102138.78;;;19.56;35.79
31082;BME280;17737;52.586;13.284;2023-05-19T11:23:04;102142.47;;;20.05;34.44
31082;BME280;17737;52.586;13.284;2023-05-19T11:25:42;102145.19;;;19.63;35.14
31082;BME280;17737;52.586;13.284;2023-05-19T11:28:14;102136.78;;;19.44;35.64
31082;BME280;17737;52.586;13.284;2023-05-19T11:30:46;102137.78;;;19.43;36.34
31082;BME280;17737;52.586;13.284;2023-05-19T11:33:16;102140.63;;;19.49;35.54
31082;BME280;17737;52.586;13.284;2023-05-19T11:35:46;102142.72;;;19.68;35.35
31082;BME280;17737;52.586;13.284;2023-05-19T11:38:17;102138.16;;;20.39;34.03
31082;BME280;17737;52.586;13.284;2023-05-19T11:40:47;102123.84;;;20.71;33.56
31082;BME280;17737;52.586;13.284;2023-05-19T11:43:16;102137.88;;;20.89;32.91
31082;BME280;17737;52.586;13.284;2023-05-19T11:45:44;102130.22;;;21.12;32.15
31082;BME280;17737;52.586;13.284;2023-05-19T11:48:13;102125.66;;;20.91;32.69
31082;BME280;17737;52.586;13.284;2023-05-19T11:50:43;102125.19;;;21.22;32.54
31082;BME280;17737;52.586;13.284;2023-05-19T11:53:12;102124.84;;;21.38;32.12
31082;BME280;17737;52.586;13.284;2023-05-19T11:55:41;102126.94;;;21.29;32.76
31082;BME280;17737;52.586;13.284;2023-05-19T11:58:12;102127.44;;;21.59;31.81
31082;BME280;17737;52.586;13.284;2023-05-19T12:00:42;102119.91;;;20.80;31.80
31082;BME280;17737;52.586;13.284;2023-05-19T12:03:14;102116.91;;;20.75;32.45
31082;BME280;17737;52.586;13.284;2023-05-19T12:05:44;102128.28;;;20.72;32.61
31082;BME280;17737;52.586;13.284;2023-05-19T12:08:15;102127.91;;;20.81;32.40
31082;BME280;17737;52.586;13.284;2023-05-19T12:10:47;102129.19;;;20.23;33.29
31082;BME280;17737;52.586;13.284;2023-05-19T12:13:16;102118.84;;;20.19;34.03
31082;BME280;17737;52.586;13.284;2023-05-19T12:15:45;102131.03;;;19.60;35.45
31082;BME280;17737;52.586;13.284;2023-05-19T12:18:13;102130.72;;;20.11;34.83
31082;BME280;17737;52.586;13.284;2023-05-19T12:20:42;102132.56;;;20.04;34.49
31082;BME280;17737;52.586;13.284;2023-05-19T12:23:10;102127.94;;;20.26;33.71
31082;BME280;17737;52.586;13.284;2023-05-19T12:25:39;102121.25;;;19.86;33.69
31082;BME280;17737;52.586;13.284;2023-05-19T12:28:08;102126.19;;;20.18;33.55
31082;BME280;17737;52.586;13.284;2023-05-19T12:30:37;102120.78;;;20.25;33.25
31082;BME280;17737;52.586;13.284;2023-05-19T12:33:07;102112.38;;;20.54;32.69
31082;BME280;17737;52.586;13.284;2023-05-19T12:35:36;102112.22;;;20.35;32.83
31082;BME280;17737;52.586;13.284;2023-05-19T12:38:05;102114.56;;;19.95;33.30
31082;BME280;17737;52.586;13.284;2023-05-19T12:40:34;102105.28;;;19.90;33.58
31082;BME280;17737;52.586;13.284;2023-05-19T12:43:03;102115.00;;;19.71;33.45
31082;BME280;17737;52.586;13.284;2023-05-19T12:45:33;102113.88;;;19.87;33.42
31082;BME280;17737;52.586;13.284;2023-05-19T12:48:03;102109.44;;;19.86;33.72
31082;BME280;17737;52.586;13.284;2023-05-19T12:50:33;102108.59;;;20.06;33.88
31082;BME280;17737;52.586;13.284;2023-05-19T12:53:07;102104.41;;;20.32;32.70
31082;BME280;17737;52.586;13.284;2023-05-19T12:55:37;102104.94;;;19.99;33.81
31082;BME280;17737;52.586;13.284;2023-05-19T12:58:08;102098.09;;;19.89;33.81
31082;BME280;17737;52.586;13.284;2023-05-19T13:00:39;102099.06;;;20.02;33.71
31082;BME280;17737;52.586;13.284;2023-05-19T13:03:14;102094.50;;;20.09;34.06